Terminal Aerodrome Forecast
Issued by NWS Birmingham, AL

Home | Current Version | Previous Version | Text Only | Print | Product List | Glossary On
Versions: 1 2 3 4 5 6 7 8 9 10 11 12 13 14 15 16 17 18 19 20
000
FTUS44 KBMX 300520
TAFBHM
TAF
KBHM 300520Z 3006/3106 13007KT P6SM SHRA SCT015 BKN040
     FM300900 VRB03KT P6SM SCT015 BKN100
      TEMPO 3010/3013 BKN015
     FM301300 00000KT 4SM BR OVC015
     FM301800 02004KT P6SM VCTS SCT025CB OVC050
     FM310300 05003KT P6SM BKN050=

USA.gov is the U.S. government's official web portal to all federal, state and local government web resources and services.